sensor_id;sensor_type;location;lat;lon;timestamp;temperature;humidity
15298;DHT22;7750;48.796;9.026;2023-03-14T00:03:20;13.70;77.90
15298;DHT22;7750;48.796;9.026;2023-03-14T00:08:20;13.70;77.90
15298;DHT22;7750;48.796;9.026;2023-03-14T00:13:21;13.80;77.90
15298;DHT22;7750;48.796;9.026;2023-03-14T00:18:22;13.80;78.50
15298;DHT22;7750;48.796;9.026;2023-03-14T00:23:23;13.80;78.30
15298;DHT22;7750;48.796;9.026;2023-03-14T00:28:24;13.80;78.70
15298;DHT22;7750;48.796;9.026;2023-03-14T00:33:25;13.80;78.60
15298;DHT22;7750;48.796;9.026;2023-03-14T00:38:26;13.70;78.90
15298;DHT22;7750;48.796;9.026;2023-03-14T00:43:27;13.70;78.60
15298;DHT22;7750;48.796;9.026;2023-03-14T00:48:27;13.70;78.80
15298;DHT22;7750;48.796;9.026;2023-03-14T00:53:28;13.70;78.40
15298;DHT22;7750;48.796;9.026;2023-03-14T00:58:29;13.60;78.90
15298;DHT22;7750;48.796;9.026;2023-03-14T01:03:29;13.60;78.80
15298;DHT22;7750;48.796;9.026;2023-03-14T01:08:30;13.60;79.00
15298;DHT22;7750;48.796;9.026;2023-03-14T01:13:30;13.60;79.30
15298;DHT22;7750;48.796;9.026;2023-03-14T01:18:32;13.60;79.60
15298;DHT22;7750;48.796;9.026;2023-03-14T01:23:32;13.60;79.80
15298;DHT22;7750;48.796;9.026;2023-03-14T01:28:33;13.70;79.80
15298;DHT22;7750;48.796;9.026;2023-03-14T01:33:34;13.70;79.40
15298;DHT22;7750;48.796;9.026;2023-03-14T01:38:36;13.70;79.50
15298;DHT22;7750;48.796;9.026;2023-03-14T01:43:37;13.70;79.20
15298;DHT22;7750;48.796;9.026;2023-03-14T01:48:51;13.70;79.10
15298;DHT22;7750;48.796;9.026;2023-03-14T01:53:59;13.70;78.90
15298;DHT22;7750;48.796;9.026;2023-03-14T01:59:06;13.70;78.80
15298;DHT22;7750;48.796;9.026;2023-03-14T02:04:08;13.70;78.40
15298;DHT22;7750;48.796;9.026;2023-03-14T02:09:09;13.60;78.20
15298;DHT22;7750;48.796;9.026;2023-03-14T02:14:17;13.60;78.00
15298;DHT22;7750;48.796;9.026;2023-03-14T02:20:07;13.60;77.80
15298;DHT22;7750;48.796;9.026;2023-03-14T02:25:05;13.50;77.50
15298;DHT22;7750;48.796;9.026;2023-03-14T02:30:20;13.50;77.90
15298;DHT22;7750;48.796;9.026;2023-03-14T02:35:24;13.40;77.80
15298;DHT22;7750;48.796;9.026;2023-03-14T02:40:26;13.40;77.80
15298;DHT22;7750;48.796;9.026;2023-03-14T02:45:42;13.40;78.00
15298;DHT22;7750;48.796;9.026;2023-03-14T02:50:44;13.40;78.30
15298;DHT22;7750;48.796;9.026;2023-03-14T02:55:47;13.30;78.20
15298;DHT22;7750;48.796;9.026;2023-03-14T03:00:48;13.30;78.10
15298;DHT22;7750;48.796;9.026;2023-03-14T03:05:50;13.20;78.20
15298;DHT22;7750;48.796;9.026;2023-03-14T03:10:57;13.20;78.10
15298;DHT22;7750;48.796;9.026;2023-03-14T03:16:02;13.10;77.90
15298;DHT22;7750;48.796;9.026;2023-03-14T03:21:04;13.10;77.90
15298;DHT22;7750;48.796;9.026;2023-03-14T03:26:06;13.00;77.70
15298;DHT22;7750;48.796;9.026;2023-03-14T03:31:11;13.00;77.60
15298;DHT22;7750;48.796;9.026;2023-03-14T03:36:12;12.90;77.50
15298;DHT22;7750;48.796;9.026;2023-03-14T03:41:12;12.90;77.30
15298;DHT22;7750;48.796;9.026;2023-03-14T03:46:13;12.90;76.90
15298;DHT22;7750;48.796;9.026;2023-03-14T03:51:15;12.90;76.90
15298;DHT22;7750;48.796;9.026;2023-03-14T03:56:16;12.90;76.70
15298;DHT22;7750;48.796;9.026;2023-03-14T04:01:17;12.80;76.60
15298;DHT22;7750;48.796;9.026;2023-03-14T04:06:17;12.80;76.50
15298;DHT22;7750;48.796;9.026;2023-03-14T04:11:18;12.80;76.10
15298;DHT22;7750;48.796;9.026;2023-03-14T04:16:21;12.70;76.40
15298;DHT22;7750;48.796;9.026;2023-03-14T04:21:23;12.70;75.50
15298;DHT22;7750;48.796;9.026;2023-03-14T04:26:24;12.70;75.40
15298;DHT22;7750;48.796;9.026;2023-03-14T04:31:25;12.70;75.20
15298;DHT22;7750;48.796;9.026;2023-03-14T04:36:28;12.60;75.10
15298;DHT22;7750;48.796;9.026;2023-03-14T04:41:29;12.60;75.00
15298;DHT22;7750;48.796;9.026;2023-03-14T04:46:29;12.60;74.80
15298;DHT22;7750;48.796;9.026;2023-03-14T04:51:30;12.60;74.50
15298;DHT22;7750;48.796;9.026;2023-03-14T04:56:31;12.50;74.60
15298;DHT22;7750;48.796;9.026;2023-03-14T05:01:32;12.50;74.50
15298;DHT22;7750;48.796;9.026;2023-03-14T05:06:32;12.50;74.00
15298;DHT22;7750;48.796;9.026;2023-03-14T05:11:33;12.50;74.30
15298;DHT22;7750;48.796;9.026;2023-03-14T05:16:34;12.50;74.40
15298;DHT22;7750;48.796;9.026;2023-03-14T05:21:34;12.50;74.20
15298;DHT22;7750;48.796;9.026;2023-03-14T05:26:35;12.50;74.20
15298;DHT22;7750;48.796;9.026;2023-03-14T05:31:36;12.50;74.00
15298;DHT22;7750;48.796;9.026;2023-03-14T05:36:36;12.50;73.90
15298;DHT22;7750;48.796;9.026;2023-03-14T05:41:38;12.40;73.80
15298;DHT22;7750;48.796;9.026;2023-03-14T05:46:39;12.50;73.80
15298;DHT22;7750;48.796;9.026;2023-03-14T05:51:39;12.50;73.80
15298;DHT22;7750;48.796;9.026;2023-03-14T05:56:40;12.50;73.70
15298;DHT22;7750;48.796;9.026;2023-03-14T06:01:41;12.50;73.70
15298;DHT22;7750;48.796;9.026;2023-03-14T06:06:42;12.50;73.70
15298;DHT22;7750;48.796;9.026;2023-03-14T06:11:43;12.50;73.50
15298;DHT22;7750;48.796;9.026;2023-03-14T06:16:44;12.50;73.40
15298;DHT22;7750;48.796;9.026;2023-03-14T06:21:45;12.50;73.30
15298;DHT22;7750;48.796;9.026;2023-03-14T06:26:45;12.60;73.10
15298;DHT22;7750;48.796;9.026;2023-03-14T06:31:46;12.60;72.90
15298;DHT22;7750;48.796;9.026;2023-03-14T06:36:47;12.60;72.90
15298;DHT22;7750;48.796;9.026;2023-03-14T06:41:47;12.60;72.90
15298;DHT22;7750;48.796;9.026;2023-03-14T06:46:48;12.60;72.70
15298;DHT22;7750;48.796;9.026;2023-03-14T06:51:49;12.70;72.70
15298;DHT22;7750;48.796;9.026;2023-03-14T06:56:49;12.70;72.80
15298;DHT22;7750;48.796;9.026;2023-03-14T07:01:50;12.80;72.90
15298;DHT22;7750;48.796;9.026;2023-03-14T07:06:51;13.10;72.70
15298;DHT22;7750;48.796;9.026;2023-03-14T07:11:51;13.50;71.90
15298;DHT22;7750;48.796;9.026;2023-03-14T07:16:52;13.80;71.10
15298;DHT22;7750;48.796;9.026;2023-03-14T07:21:53;14.20;70.30
15298;DHT22;7750;48.796;9.026;2023-03-14T07:26:53;14.50;69.90
15298;DHT22;7750;48.796;9.026;2023-03-14T07:31:54;14.70;67.70
15298;DHT22;7750;48.796;9.026;2023-03-14T07:36:55;14.80;68.20
15298;DHT22;7750;48.796;9.026;2023-03-14T07:41:55;15.50;66.00
15298;DHT22;7750;48.796;9.026;2023-03-14T07:46:56;15.60;66.30
15298;DHT22;7750;48.796;9.026;2023-03-14T07:51:56;15.70;65.50
15298;DHT22;7750;48.796;9.026;2023-03-14T07:56:58;15.70;64.70
15298;DHT22;7750;48.796;9.026;2023-03-14T08:02:03;15.60;64.90
15298;DHT22;7750;48.796;9.026;2023-03-14T08:07:12;15.70;65.60
15298;DHT22;7750;48.796;9.026;2023-03-14T08:12:15;16.00;63.90
15298;DHT22;7750;48.796;9.026;2023-03-14T08:17:16;16.20;62.70
15298;DHT22;7750;48.796;9.026;2023-03-14T08:22:17;16.50;63.50
15298;DHT22;7750;48.796;9.026;2023-03-14T08:27:18;16.90;62.90
15298;DHT22;7750;48.796;9.026;2023-03-14T08:32:18;17.20;60.00
15298;DHT22;7750;48.796;9.026;2023-03-14T08:37:20;17.30;59.10
15298;DHT22;7750;48.796;9.026;2023-03-14T08:42:21;17.00;58.60
15298;DHT22;7750;48.796;9.026;2023-03-14T08:47:21;16.80;59.50
15298;DHT22;7750;48.796;9.026;2023-03-14T08:52:22;16.70;58.90
15298;DHT22;7750;48.796;9.026;2023-03-14T08:57:26;16.60;59.20
15298;DHT22;7750;48.796;9.026;2023-03-14T09:02:30;16.50;59.20
15298;DHT22;7750;48.796;9.026;2023-03-14T09:07:30;16.40;59.70
15298;DHT22;7750;48.796;9.026;2023-03-14T09:12:31;16.20;60.40
15298;DHT22;7750;48.796;9.026;2023-03-14T09:17:32;16.10;60.50
15298;DHT22;7750;48.796;9.026;2023-03-14T09:22:33;15.90;61.70
15298;DHT22;7750;48.796;9.026;2023-03-14T09:27:35;15.70;62.40
15298;DHT22;7750;48.796;9.026;2023-03-14T09:32:36;15.40;63.20
15298;DHT22;7750;48.796;9.026;2023-03-14T09:37:37;15.30;64.60
15298;DHT22;7750;48.796;9.026;2023-03-14T09:42:38;15.10;64.60
15298;DHT22;7750;48.796;9.026;2023-03-14T09:47:43;15.10;64.40
15298;DHT22;7750;48.796;9.026;2023-03-14T09:52:48;15.00;64.60
15298;DHT22;7750;48.796;9.026;2023-03-14T09:57:56;14.90;64.60
15298;DHT22;7750;48.796;9.026;2023-03-14T10:03:31;14.80;64.80
15298;DHT22;7750;48.796;9.026;2023-03-14T10:08:32;14.80;65.00
15298;DHT22;7750;48.796;9.026;2023-03-14T10:13:32;14.80;65.00
15298;DHT22;7750;48.796;9.026;2023-03-14T10:18:33;15.00;64.80
15298;DHT22;7750;48.796;9.026;2023-03-14T10:23:35;15.10;65.20
15298;DHT22;7750;48.796;9.026;2023-03-14T10:28:47;15.40;64.20
15298;DHT22;7750;48.796;9.026;2023-03-14T10:34:04;15.60;63.20
15298;DHT22;7750;48.796;9.026;2023-03-14T10:39:28;15.60;63.10
15298;DHT22;7750;48.796;9.026;2023-03-14T10:44:30;15.60;62.40
15298;DHT22;7750;48.796;9.026;2023-03-14T10:49:34;15.50;62.90
15298;DHT22;7750;48.796;9.026;2023-03-14T10:54:35;15.50;62.90
15298;DHT22;7750;48.796;9.026;2023-03-14T10:59:37;15.30;63.80
15298;DHT22;7750;48.796;9.026;2023-03-14T11:10:33;15.10;65.50
15298;DHT22;7750;48.796;9.026;2023-03-14T11:16:06;15.10;66.60
15298;DHT22;7750;48.796;9.026;2023-03-14T11:31:27;14.60;68.10
15298;DHT22;7750;48.796;9.026;2023-03-14T11:36:51;14.50;69.00
15298;DHT22;7750;48.796;9.026;2023-03-14T11:41:53;14.30;69.80
15298;DHT22;7750;48.796;9.026;2023-03-14T11:47:11;14.20;69.80
15298;DHT22;7750;48.796;9.026;2023-03-14T11:52:21;14.10;70.90
15298;DHT22;7750;48.796;9.026;2023-03-14T11:57:24;14.10;71.60
15298;DHT22;7750;48.796;9.026;2023-03-14T12:02:46;14.00;72.10
15298;DHT22;7750;48.796;9.026;2023-03-14T12:13:04;14.00;73.30
15298;DHT22;7750;48.796;9.026;2023-03-14T12:18:33;13.90;73.70
15298;DHT22;7750;48.796;9.026;2023-03-14T12:23:57;13.80;74.20
15298;DHT22;7750;48.796;9.026;2023-03-14T12:44:49;13.70;65.50
15298;DHT22;7750;48.796;9.026;2023-03-14T12:49:52;13.80;63.40
15298;DHT22;7750;48.796;9.026;2023-03-14T13:00:23;13.90;59.40
15298;DHT22;7750;48.796;9.026;2023-03-14T13:05:25;14.00;59.00
15298;DHT22;7750;48.796;9.026;2023-03-14T13:10:30;13.90;57.80
15298;DHT22;7750;48.796;9.026;2023-03-14T13:15:43;13.80;57.40
15298;DHT22;7750;48.796;9.026;2023-03-14T13:20:53;13.70;57.20
15298;DHT22;7750;48.796;9.026;2023-03-14T13:25:55;13.50;56.80
15298;DHT22;7750;48.796;9.026;2023-03-14T13:30:58;13.20;55.00
15298;DHT22;7750;48.796;9.026;2023-03-14T13:36:03;13.10;54.70
15298;DHT22;7750;48.796;9.026;2023-03-14T13:41:06;12.90;55.00
15298;DHT22;7750;48.796;9.026;2023-03-14T13:46:13;12.80;55.40
15298;DHT22;7750;48.796;9.026;2023-03-14T13:51:16;12.70;53.60
15298;DHT22;7750;48.796;9.026;2023-03-14T13:56:20;12.70;54.80
15298;DHT22;7750;48.796;9.026;2023-03-14T14:01:26;12.60;54.20
15298;DHT22;7750;48.796;9.026;2023-03-14T14:06:38;12.60;53.00
15298;DHT22;7750;48.796;9.026;2023-03-14T14:11:43;12.50;51.40
15298;DHT22;7750;48.796;9.026;2023-03-14T14:16:47;12.40;51.20
15298;DHT22;7750;48.796;9.026;2023-03-14T14:21:48;12.40;51.80
15298;DHT22;7750;48.796;9.026;2023-03-14T14:26:54;12.30;51.00
15298;DHT22;7750;48.796;9.026;2023-03-14T14:42:23;12.20;51.20
15298;DHT22;7750;48.796;9.026;2023-03-14T14:47:26;12.10;52.00
15298;DHT22;7750;48.796;9.026;2023-03-14T14:52:36;12.20;53.00
15298;DHT22;7750;48.796;9.026;2023-03-14T14:57:39;12.20;52.30
15298;DHT22;7750;48.796;9.026;2023-03-14T15:02:45;12.20;52.10
15298;DHT22;7750;48.796;9.026;2023-03-14T15:07:47;12.30;52.30
15298;DHT22;7750;48.796;9.026;2023-03-14T15:12:48;12.40;52.30
15298;DHT22;7750;48.796;9.026;2023-03-14T15:17:48;12.50;52.10
15298;DHT22;7750;48.796;9.026;2023-03-14T15:22:49;12.60;52.40
15298;DHT22;7750;48.796;9.026;2023-03-14T15:27:50;12.80;52.70
15298;DHT22;7750;48.796;9.026;2023-03-14T15:32:50;13.00;51.80
15298;DHT22;7750;48.796;9.026;2023-03-14T15:37:51;13.00;52.00
15298;DHT22;7750;48.796;9.026;2023-03-14T15:42:52;13.00;51.60
15298;DHT22;7750;48.796;9.026;2023-03-14T15:47:52;13.10;52.20
15298;DHT22;7750;48.796;9.026;2023-03-14T15:52:53;13.20;52.10
15298;DHT22;7750;48.796;9.026;2023-03-14T15:57:54;13.20;51.60
15298;DHT22;7750;48.796;9.026;2023-03-14T16:02:55;13.20;51.50
15298;DHT22;7750;48.796;9.026;2023-03-14T16:07:55;13.20;51.50
15298;DHT22;7750;48.796;9.026;2023-03-14T16:12:56;13.20;51.60
15298;DHT22;7750;48.796;9.026;2023-03-14T16:17:57;13.10;51.30
15298;DHT22;7750;48.796;9.026;2023-03-14T16:23:00;12.90;52.10
15298;DHT22;7750;48.796;9.026;2023-03-14T16:28:00;12.80;52.10
15298;DHT22;7750;48.796;9.026;2023-03-14T16:33:01;12.70;52.40
15298;DHT22;7750;48.796;9.026;2023-03-14T16:38:03;12.60;52.60
15298;DHT22;7750;48.796;9.026;2023-03-14T16:43:04;12.60;52.70
15298;DHT22;7750;48.796;9.026;2023-03-14T16:48:05;12.60;52.80
15298;DHT22;7750;48.796;9.026;2023-03-14T16:53:05;12.50;53.20
15298;DHT22;7750;48.796;9.026;2023-03-14T16:58:06;12.50;53.30
15298;DHT22;7750;48.796;9.026;2023-03-14T17:03:06;12.40;53.30
15298;DHT22;7750;48.796;9.026;2023-03-14T17:08:07;12.30;53.30
15298;DHT22;7750;48.796;9.026;2023-03-14T17:13:08;12.30;53.90
15298;DHT22;7750;48.796;9.026;2023-03-14T17:18:09;12.30;55.10
15298;DHT22;7750;48.796;9.026;2023-03-14T17:23:09;12.20;57.50
15298;DHT22;7750;48.796;9.026;2023-03-14T17:28:10;11.90;58.70
15298;DHT22;7750;48.796;9.026;2023-03-14T17:33:11;11.70;59.40
15298;DHT22;7750;48.796;9.026;2023-03-14T17:38:12;11.50;60.10
15298;DHT22;7750;48.796;9.026;2023-03-14T17:43:15;11.30;60.60
15298;DHT22;7750;48.796;9.026;2023-03-14T17:48:16;11.10;61.60
15298;DHT22;7750;48.796;9.026;2023-03-14T17:53:17;10.90;62.50
15298;DHT22;7750;48.796;9.026;2023-03-14T17:58:18;10.70;63.90
15298;DHT22;7750;48.796;9.026;2023-03-14T18:03:18;10.60;64.10
15298;DHT22;7750;48.796;9.026;2023-03-14T18:08:19;10.50;64.70
15298;DHT22;7750;48.796;9.026;2023-03-14T18:13:20;10.40;64.80
15298;DHT22;7750;48.796;9.026;2023-03-14T18:18:20;10.30;65.00
15298;DHT22;7750;48.796;9.026;2023-03-14T18:23:21;10.20;66.40
15298;DHT22;7750;48.796;9.026;2023-03-14T18:28:22;10.00;66.50
15298;DHT22;7750;48.796;9.026;2023-03-14T18:33:23;9.90;66.50
15298;DHT22;7750;48.796;9.026;2023-03-14T18:38:23;9.80;66.40
15298;DHT22;7750;48.796;9.026;2023-03-14T18:43:24;9.70;66.60
15298;DHT22;7750;48.796;9.026;2023-03-14T18:48:25;9.60;66.30
15298;DHT22;7750;48.796;9.026;2023-03-14T18:53:26;9.60;65.90
15298;DHT22;7750;48.796;9.026;2023-03-14T18:58:31;9.50;66.20
15298;DHT22;7750;48.796;9.026;2023-03-14T19:03:33;9.50;66.00
15298;DHT22;7750;48.796;9.026;2023-03-14T19:08:37;9.40;65.90
15298;DHT22;7750;48.796;9.026;2023-03-14T19:13:39;9.30;65.80
15298;DHT22;7750;48.796;9.026;2023-03-14T19:18:40;9.30;65.90
15298;DHT22;7750;48.796;9.026;2023-03-14T19:23:42;9.30;66.40
15298;DHT22;7750;48.796;9.026;2023-03-14T19:28:45;9.30;65.70
15298;DHT22;7750;48.796;9.026;2023-03-14T19:33:46;9.30;65.40
15298;DHT22;7750;48.796;9.026;2023-03-14T19:38:47;9.30;65.30
15298;DHT22;7750;48.796;9.026;2023-03-14T19:43:49;9.30;65.30
15298;DHT22;7750;48.796;9.026;2023-03-14T19:48:50;9.30;64.90
15298;DHT22;7750;48.796;9.026;2023-03-14T19:53:54;9.30;64.90
15298;DHT22;7750;48.796;9.026;2023-03-14T20:04:02;9.30;65.20
15298;DHT22;7750;48.796;9.026;2023-03-14T20:09:03;9.30;65.10
15298;DHT22;7750;48.796;9.026;2023-03-14T20:14:07;9.30;64.90
15298;DHT22;7750;48.796;9.026;2023-03-14T20:19:10;9.30;64.90
15298;DHT22;7750;48.796;9.026;2023-03-14T20:24:12;9.40;65.20
15298;DHT22;7750;48.796;9.026;2023-03-14T20:29:13;9.40;65.00
15298;DHT22;7750;48.796;9.026;2023-03-14T20:34:14;9.40;65.40
15298;DHT22;7750;48.796;9.026;2023-03-14T20:39:15;9.40;65.40
15298;DHT22;7750;48.796;9.026;2023-03-14T20:44:15;9.40;65.10
15298;DHT22;7750;48.796;9.026;2023-03-14T20:49:16;9.40;65.00
15298;DHT22;7750;48.796;9.026;2023-03-14T20:54:17;9.40;64.70
15298;DHT22;7750;48.796;9.026;2023-03-14T20:59:18;9.40;64.80
15298;DHT22;7750;48.796;9.026;2023-03-14T21:04:18;9.50;64.80
15298;DHT22;7750;48.796;9.026;2023-03-14T21:09:20;9.50;64.90
15298;DHT22;7750;48.796;9.026;2023-03-14T21:14:21;9.50;65.40
15298;DHT22;7750;48.796;9.026;2023-03-14T21:19:22;9.50;65.60
15298;DHT22;7750;48.796;9.026;2023-03-14T21:24:30;9.50;66.40
15298;DHT22;7750;48.796;9.026;2023-03-14T21:29:31;9.50;66.80
15298;DHT22;7750;48.796;9.026;2023-03-14T21:34:36;9.40;67.10
15298;DHT22;7750;48.796;9.026;2023-03-14T21:39:37;9.40;67.40
15298;DHT22;7750;48.796;9.026;2023-03-14T21:44:37;9.40;68.50
15298;DHT22;7750;48.796;9.026;2023-03-14T21:49:38;9.30;68.80
15298;DHT22;7750;48.796;9.026;2023-03-14T21:54:39;9.30;69.20
15298;DHT22;7750;48.796;9.026;2023-03-14T21:59:44;9.20;70.00
15298;DHT22;7750;48.796;9.026;2023-03-14T22:04:45;9.10;69.00
15298;DHT22;7750;48.796;9.026;2023-03-14T22:09:45;9.00;69.30
15298;DHT22;7750;48.796;9.026;2023-03-14T22:14:47;9.00;69.80
15298;DHT22;7750;48.796;9.026;2023-03-14T22:19:48;8.80;70.10
15298;DHT22;7750;48.796;9.026;2023-03-14T22:24:48;8.70;69.20
15298;DHT22;7750;48.796;9.026;2023-03-14T22:29:49;8.50;68.50
15298;DHT22;7750;48.796;9.026;2023-03-14T22:34:50;8.20;68.50
15298;DHT22;7750;48.796;9.026;2023-03-14T22:39:50;8.00;68.90
15298;DHT22;7750;48.796;9.026;2023-03-14T22:44:52;7.60;69.50
15298;DHT22;7750;48.796;9.026;2023-03-14T22:49:52;7.40;69.50
15298;DHT22;7750;48.796;9.026;2023-03-14T22:54:53;7.10;69.70
15298;DHT22;7750;48.796;9.026;2023-03-14T22:59:54;6.90;70.40
15298;DHT22;7750;48.796;9.026;2023-03-14T23:04:55;6.80;71.20
15298;DHT22;7750;48.796;9.026;2023-03-14T23:09:56;6.70;71.30
15298;DHT22;7750;48.796;9.026;2023-03-14T23:14:56;6.50;72.10
15298;DHT22;7750;48.796;9.026;2023-03-14T23:19:57;6.50;72.50
15298;DHT22;7750;48.796;9.026;2023-03-14T23:24:59;6.40;72.60
15298;DHT22;7750;48.796;9.026;2023-03-14T23:30:00;6.40;72.40
15298;DHT22;7750;48.796;9.026;2023-03-14T23:35:01;6.40;72.80
15298;DHT22;7750;48.796;9.026;2023-03-14T23:40:02;6.30;72.90
15298;DHT22;7750;48.796;9.026;2023-03-14T23:45:05;6.30;73.10
15298;DHT22;7750;48.796;9.026;2023-03-14T23:50:07;6.30;72.60
15298;DHT22;7750;48.796;9.026;2023-03-14T23:55:08;6.30;72.20
